sensor_id;sensor_type;location;lat;lon;timestamp;P1;durP1;ratioP1;P2;durP2;ratioP2
17488;SDS011;8861;52.644;4.734;2023-08-17T00:00:03;5.87;;;3.30;;
17488;SDS011;8861;52.644;4.734;2023-08-17T00:02:35;4.07;;;3.10;;
17488;SDS011;8861;52.644;4.734;2023-08-17T00:05:02;6.10;;;3.10;;
17488;SDS011;8861;52.644;4.734;2023-08-17T00:07:29;4.57;;;3.00;;
17488;SDS011;8861;52.644;4.734;2023-08-17T00:09:56;5.53;;;3.20;;
17488;SDS011;8861;52.644;4.734;2023-08-17T00:12:23;7.40;;;3.30;;
17488;SDS011;8861;52.644;4.734;2023-08-17T00:14:50;6.97;;;3.80;;
17488;SDS011;8861;52.644;4.734;2023-08-17T00:17:17;4.13;;;3.50;;
17488;SDS011;8861;52.644;4.734;2023-08-17T00:19:46;6.00;;;3.80;;
17488;SDS011;8861;52.644;4.734;2023-08-17T00:22:13;6.63;;;3.90;;
17488;SDS011;8861;52.644;4.734;2023-08-17T00:24:40;6.53;;;3.67;;
17488;SDS011;8861;52.644;4.734;2023-08-17T00:27:09;4.73;;;3.60;;
17488;SDS011;8861;52.644;4.734;2023-08-17T00:29:36;4.70;;;3.27;;
17488;SDS011;8861;52.644;4.734;2023-08-17T00:32:03;6.33;;;3.17;;
17488;SDS011;8861;52.644;4.734;2023-08-17T00:34:31;6.80;;;3.40;;
17488;SDS011;8861;52.644;4.734;2023-08-17T00:36:59;7.67;;;3.97;;
17488;SDS011;8861;52.644;4.734;2023-08-17T00:39:26;5.70;;;4.00;;
17488;SDS011;8861;52.644;4.734;2023-08-17T00:41:53;5.37;;;3.50;;
17488;SDS011;8861;52.644;4.734;2023-08-17T00:44:20;4.70;;;3.20;;
17488;SDS011;8861;52.644;4.734;2023-08-17T00:46:47;4.80;;;3.33;;
17488;SDS011;8861;52.644;4.734;2023-08-17T00:49:14;7.20;;;3.77;;
17488;SDS011;8861;52.644;4.734;2023-08-17T00:51:41;5.37;;;3.30;;
17488;SDS011;8861;52.644;4.734;2023-08-17T00:54:10;5.53;;;3.40;;
17488;SDS011;8861;52.644;4.734;2023-08-17T00:56:37;5.43;;;3.20;;
17488;SDS011;8861;52.644;4.734;2023-08-17T00:59:04;4.53;;;3.40;;
17488;SDS011;8861;52.644;4.734;2023-08-17T01:01:31;4.40;;;3.20;;
17488;SDS011;8861;52.644;4.734;2023-08-17T01:03:58;5.67;;;3.43;;
17488;SDS011;8861;52.644;4.734;2023-08-17T01:06:25;5.87;;;3.03;;
17488;SDS011;8861;52.644;4.734;2023-08-17T01:08:52;6.57;;;3.00;;
17488;SDS011;8861;52.644;4.734;2023-08-17T01:11:22;5.03;;;3.13;;
17488;SDS011;8861;52.644;4.734;2023-08-17T01:13:57;4.30;;;3.00;;
17488;SDS011;8861;52.644;4.734;2023-08-17T01:16:30;3.83;;;2.80;;
17488;SDS011;8861;52.644;4.734;2023-08-17T01:19:00;4.67;;;3.40;;
17488;SDS011;8861;52.644;4.734;2023-08-17T01:21:35;3.93;;;3.40;;
17488;SDS011;8861;52.644;4.734;2023-08-17T01:24:07;5.23;;;3.40;;
17488;SDS011;8861;52.644;4.734;2023-08-17T01:26:34;5.17;;;3.20;;
17488;SDS011;8861;52.644;4.734;2023-08-17T01:29:01;4.60;;;3.10;;
17488;SDS011;8861;52.644;4.734;2023-08-17T01:31:30;5.57;;;3.40;;
17488;SDS011;8861;52.644;4.734;2023-08-17T01:34:02;5.60;;;3.30;;
17488;SDS011;8861;52.644;4.734;2023-08-17T01:36:33;4.77;;;3.17;;
17488;SDS011;8861;52.644;4.734;2023-08-17T01:39:04;4.43;;;3.40;;
17488;SDS011;8861;52.644;4.734;2023-08-17T01:41:33;4.53;;;3.10;;
17488;SDS011;8861;52.644;4.734;2023-08-17T01:44:01;5.47;;;3.20;;
17488;SDS011;8861;52.644;4.734;2023-08-17T01:46:30;6.83;;;3.40;;
17488;SDS011;8861;52.644;4.734;2023-08-17T01:48:58;6.83;;;3.57;;
17488;SDS011;8861;52.644;4.734;2023-08-17T01:51:25;4.33;;;3.00;;
17488;SDS011;8861;52.644;4.734;2023-08-17T01:53:52;5.37;;;3.33;;
17488;SDS011;8861;52.644;4.734;2023-08-17T01:56:21;4.33;;;2.93;;
17488;SDS011;8861;52.644;4.734;2023-08-17T01:58:48;5.70;;;3.40;;
17488;SDS011;8861;52.644;4.734;2023-08-17T02:01:15;3.87;;;3.27;;
17488;SDS011;8861;52.644;4.734;2023-08-17T02:03:41;4.70;;;3.47;;
17488;SDS011;8861;52.644;4.734;2023-08-17T02:06:08;6.70;;;3.43;;
17488;SDS011;8861;52.644;4.734;2023-08-17T02:08:36;5.57;;;3.23;;
17488;SDS011;8861;52.644;4.734;2023-08-17T02:11:03;4.00;;;3.07;;
17488;SDS011;8861;52.644;4.734;2023-08-17T02:13:32;4.33;;;3.40;;
17488;SDS011;8861;52.644;4.734;2023-08-17T02:15:59;4.93;;;3.60;;
17488;SDS011;8861;52.644;4.734;2023-08-17T02:18:26;4.60;;;3.33;;
17488;SDS011;8861;52.644;4.734;2023-08-17T02:20:56;6.03;;;3.20;;
17488;SDS011;8861;52.644;4.734;2023-08-17T02:23:23;5.03;;;3.10;;
17488;SDS011;8861;52.644;4.734;2023-08-17T02:25:50;4.50;;;3.30;;
17488;SDS011;8861;52.644;4.734;2023-08-17T02:28:17;4.40;;;3.27;;
17488;SDS011;8861;52.644;4.734;2023-08-17T02:30:45;4.37;;;3.30;;
17488;SDS011;8861;52.644;4.734;2023-08-17T02:33:13;3.57;;;3.00;;
17488;SDS011;8861;52.644;4.734;2023-08-17T02:35:40;4.57;;;3.53;;
17488;SDS011;8861;52.644;4.734;2023-08-17T02:38:06;3.63;;;3.20;;
17488;SDS011;8861;52.644;4.734;2023-08-17T02:40:34;4.37;;;3.33;;
17488;SDS011;8861;52.644;4.734;2023-08-17T02:43:00;5.40;;;3.40;;
17488;SDS011;8861;52.644;4.734;2023-08-17T02:45:27;4.80;;;3.30;;
17488;SDS011;8861;52.644;4.734;2023-08-17T02:47:56;7.07;;;3.53;;
17488;SDS011;8861;52.644;4.734;2023-08-17T02:50:23;3.93;;;3.13;;
17488;SDS011;8861;52.644;4.734;2023-08-17T02:52:50;4.70;;;3.20;;
17488;SDS011;8861;52.644;4.734;2023-08-17T02:55:17;4.40;;;3.33;;
17488;SDS011;8861;52.644;4.734;2023-08-17T02:57:44;4.10;;;3.20;;
17488;SDS011;8861;52.644;4.734;2023-08-17T03:00:11;3.30;;;2.93;;
17488;SDS011;8861;52.644;4.734;2023-08-17T03:02:39;4.13;;;3.13;;
17488;SDS011;8861;52.644;4.734;2023-08-17T03:05:07;4.70;;;3.13;;
17488;SDS011;8861;52.644;4.734;2023-08-17T03:07:34;3.80;;;3.10;;
17488;SDS011;8861;52.644;4.734;2023-08-17T03:10:01;4.10;;;3.20;;
17488;SDS011;8861;52.644;4.734;2023-08-17T03:12:29;4.27;;;3.20;;
17488;SDS011;8861;52.644;4.734;2023-08-17T03:14:56;5.47;;;3.20;;
17488;SDS011;8861;52.644;4.734;2023-08-17T03:17:23;3.93;;;3.13;;
17488;SDS011;8861;52.644;4.734;2023-08-17T03:19:50;4.07;;;2.90;;
17488;SDS011;8861;52.644;4.734;2023-08-17T03:22:18;3.80;;;2.97;;
17488;SDS011;8861;52.644;4.734;2023-08-17T03:24:45;3.70;;;3.30;;
17488;SDS011;8861;52.644;4.734;2023-08-17T03:27:13;3.67;;;3.10;;
17488;SDS011;8861;52.644;4.734;2023-08-17T03:29:40;4.47;;;3.10;;
17488;SDS011;8861;52.644;4.734;2023-08-17T03:32:06;3.63;;;3.00;;
17488;SDS011;8861;52.644;4.734;2023-08-17T03:34:33;3.53;;;2.87;;
17488;SDS011;8861;52.644;4.734;2023-08-17T03:37:00;4.50;;;3.03;;
17488;SDS011;8861;52.644;4.734;2023-08-17T03:39:29;4.33;;;3.10;;
17488;SDS011;8861;52.644;4.734;2023-08-17T03:41:56;3.30;;;2.83;;
17488;SDS011;8861;52.644;4.734;2023-08-17T03:44:23;5.33;;;3.37;;
17488;SDS011;8861;52.644;4.734;2023-08-17T03:46:50;5.40;;;3.10;;
17488;SDS011;8861;52.644;4.734;2023-08-17T03:49:17;3.40;;;2.93;;
17488;SDS011;8861;52.644;4.734;2023-08-17T03:51:44;4.40;;;3.20;;
17488;SDS011;8861;52.644;4.734;2023-08-17T03:54:11;4.50;;;2.70;;
17488;SDS011;8861;52.644;4.734;2023-08-17T03:56:40;4.27;;;3.10;;
17488;SDS011;8861;52.644;4.734;2023-08-17T03:59:07;4.00;;;2.90;;
17488;SDS011;8861;52.644;4.734;2023-08-17T04:01:34;4.83;;;3.17;;
17488;SDS011;8861;52.644;4.734;2023-08-17T04:04:01;4.03;;;3.63;;
17488;SDS011;8861;52.644;4.734;2023-08-17T04:06:28;4.63;;;3.13;;
17488;SDS011;8861;52.644;4.734;2023-08-17T04:08:55;4.37;;;3.43;;
17488;SDS011;8861;52.644;4.734;2023-08-17T04:11:22;3.40;;;3.10;;
17488;SDS011;8861;52.644;4.734;2023-08-17T04:13:51;4.80;;;3.27;;
17488;SDS011;8861;52.644;4.734;2023-08-17T04:16:18;3.50;;;3.20;;
17488;SDS011;8861;52.644;4.734;2023-08-17T04:18:44;3.90;;;2.97;;
17488;SDS011;8861;52.644;4.734;2023-08-17T04:21:12;3.50;;;3.10;;
17488;SDS011;8861;52.644;4.734;2023-08-17T04:23:39;3.83;;;3.07;;
17488;SDS011;8861;52.644;4.734;2023-08-17T04:26:05;4.60;;;3.30;;
17488;SDS011;8861;52.644;4.734;2023-08-17T04:28:32;3.63;;;3.00;;
17488;SDS011;8861;52.644;4.734;2023-08-17T04:31:01;5.00;;;3.40;;
17488;SDS011;8861;52.644;4.734;2023-08-17T04:33:28;5.33;;;3.37;;
17488;SDS011;8861;52.644;4.734;2023-08-17T04:35:55;3.97;;;3.40;;
17488;SDS011;8861;52.644;4.734;2023-08-17T04:38:24;3.63;;;3.00;;
17488;SDS011;8861;52.644;4.734;2023-08-17T04:40:51;4.90;;;3.20;;
17488;SDS011;8861;52.644;4.734;2023-08-17T04:43:18;4.23;;;3.13;;
17488;SDS011;8861;52.644;4.734;2023-08-17T04:45:45;3.80;;;3.27;;
17488;SDS011;8861;52.644;4.734;2023-08-17T04:48:14;4.10;;;3.00;;
17488;SDS011;8861;52.644;4.734;2023-08-17T04:50:41;5.43;;;3.40;;
17488;SDS011;8861;52.644;4.734;2023-08-17T04:53:08;3.77;;;3.13;;
17488;SDS011;8861;52.644;4.734;2023-08-17T04:55:35;4.57;;;3.27;;
17488;SDS011;8861;52.644;4.734;2023-08-17T04:58:02;3.70;;;2.87;;
17488;SDS011;8861;52.644;4.734;2023-08-17T05:00:29;3.67;;;3.07;;
17488;SDS011;8861;52.644;4.734;2023-08-17T05:02:56;4.37;;;3.10;;
17488;SDS011;8861;52.644;4.734;2023-08-17T05:05:24;4.27;;;3.23;;
17488;SDS011;8861;52.644;4.734;2023-08-17T05:07:52;3.63;;;3.03;;
17488;SDS011;8861;52.644;4.734;2023-08-17T05:10:19;3.30;;;2.90;;
17488;SDS011;8861;52.644;4.734;2023-08-17T05:12:46;5.67;;;3.60;;
17488;SDS011;8861;52.644;4.734;2023-08-17T05:15:13;4.67;;;3.50;;
17488;SDS011;8861;52.644;4.734;2023-08-17T05:17:40;4.57;;;3.13;;
17488;SDS011;8861;52.644;4.734;2023-08-17T05:20:07;4.67;;;3.37;;
17488;SDS011;8861;52.644;4.734;2023-08-17T05:22:36;4.77;;;3.23;;
17488;SDS011;8861;52.644;4.734;2023-08-17T05:25:04;3.90;;;3.17;;
17488;SDS011;8861;52.644;4.734;2023-08-17T05:27:31;4.47;;;3.37;;
17488;SDS011;8861;52.644;4.734;2023-08-17T05:29:58;5.90;;;4.20;;
17488;SDS011;8861;52.644;4.734;2023-08-17T05:32:25;8.53;;;4.50;;
17488;SDS011;8861;52.644;4.734;2023-08-17T05:34:52;6.93;;;5.30;;
17488;SDS011;8861;52.644;4.734;2023-08-17T05:37:19;9.93;;;6.00;;
17488;SDS011;8861;52.644;4.734;2023-08-17T05:39:48;9.67;;;6.10;;
17488;SDS011;8861;52.644;4.734;2023-08-17T05:42:15;8.83;;;6.23;;
17488;SDS011;8861;52.644;4.734;2023-08-17T05:44:42;9.77;;;6.87;;
17488;SDS011;8861;52.644;4.734;2023-08-17T05:47:09;8.67;;;5.80;;
17488;SDS011;8861;52.644;4.734;2023-08-17T05:49:36;8.93;;;5.17;;
17488;SDS011;8861;52.644;4.734;2023-08-17T05:52:04;6.17;;;4.83;;
17488;SDS011;8861;52.644;4.734;2023-08-17T05:54:31;7.00;;;4.97;;
17488;SDS011;8861;52.644;4.734;2023-08-17T05:56:59;5.70;;;4.33;;
17488;SDS011;8861;52.644;4.734;2023-08-17T05:59:27;5.73;;;4.00;;
17488;SDS011;8861;52.644;4.734;2023-08-17T06:01:54;6.30;;;3.97;;
17488;SDS011;8861;52.644;4.734;2023-08-17T06:04:21;5.37;;;3.63;;
17488;SDS011;8861;52.644;4.734;2023-08-17T06:06:48;5.60;;;3.47;;
17488;SDS011;8861;52.644;4.734;2023-08-17T06:09:15;4.70;;;3.40;;
17488;SDS011;8861;52.644;4.734;2023-08-17T06:11:42;5.77;;;3.30;;
17488;SDS011;8861;52.644;4.734;2023-08-17T06:14:11;4.23;;;3.03;;
17488;SDS011;8861;52.644;4.734;2023-08-17T06:16:38;3.30;;;2.90;;
17488;SDS011;8861;52.644;4.734;2023-08-17T06:19:05;3.43;;;3.10;;
17488;SDS011;8861;52.644;4.734;2023-08-17T06:21:32;4.03;;;3.00;;
17488;SDS011;8861;52.644;4.734;2023-08-17T06:23:59;3.80;;;2.70;;
17488;SDS011;8861;52.644;4.734;2023-08-17T06:26:26;3.93;;;2.83;;
17488;SDS011;8861;52.644;4.734;2023-08-17T06:28:53;4.03;;;2.80;;
17488;SDS011;8861;52.644;4.734;2023-08-17T06:31:22;3.40;;;2.47;;
17488;SDS011;8861;52.644;4.734;2023-08-17T06:33:52;4.00;;;2.63;;
17488;SDS011;8861;52.644;4.734;2023-08-17T06:36:19;5.90;;;2.97;;
17488;SDS011;8861;52.644;4.734;2023-08-17T06:38:46;6.50;;;3.20;;
17488;SDS011;8861;52.644;4.734;2023-08-17T06:41:13;3.20;;;2.63;;
17488;SDS011;8861;52.644;4.734;2023-08-17T06:43:40;6.07;;;2.70;;
17488;SDS011;8861;52.644;4.734;2023-08-17T06:46:07;4.63;;;2.80;;
17488;SDS011;8861;52.644;4.734;2023-08-17T06:48:35;4.23;;;2.80;;
17488;SDS011;8861;52.644;4.734;2023-08-17T06:51:02;4.23;;;2.70;;
17488;SDS011;8861;52.644;4.734;2023-08-17T06:53:30;3.73;;;2.60;;
17488;SDS011;8861;52.644;4.734;2023-08-17T06:55:57;4.90;;;2.67;;
17488;SDS011;8861;52.644;4.734;2023-08-17T06:58:24;4.40;;;2.60;;
17488;SDS011;8861;52.644;4.734;2023-08-17T07:00:51;3.63;;;2.40;;
17488;SDS011;8861;52.644;4.734;2023-08-17T07:03:18;5.10;;;2.80;;
17488;SDS011;8861;52.644;4.734;2023-08-17T07:05:47;3.67;;;2.37;;
17488;SDS011;8861;52.644;4.734;2023-08-17T07:08:14;4.67;;;2.50;;
17488;SDS011;8861;52.644;4.734;2023-08-17T07:10:42;2.53;;;1.97;;
17488;SDS011;8861;52.644;4.734;2023-08-17T07:13:08;3.30;;;2.10;;
17488;SDS011;8861;52.644;4.734;2023-08-17T07:15:35;3.73;;;2.03;;
17488;SDS011;8861;52.644;4.734;2023-08-17T07:18:03;2.80;;;2.30;;
17488;SDS011;8861;52.644;4.734;2023-08-17T07:20:30;2.63;;;2.27;;
17488;SDS011;8861;52.644;4.734;2023-08-17T07:22:58;4.07;;;2.13;;
17488;SDS011;8861;52.644;4.734;2023-08-17T07:25:25;4.67;;;2.10;;
17488;SDS011;8861;52.644;4.734;2023-08-17T07:27:52;3.30;;;2.13;;
17488;SDS011;8861;52.644;4.734;2023-08-17T07:30:19;3.27;;;2.20;;
17488;SDS011;8861;52.644;4.734;2023-08-17T07:32:46;3.80;;;2.10;;
17488;SDS011;8861;52.644;4.734;2023-08-17T07:35:13;2.87;;;1.90;;
17488;SDS011;8861;52.644;4.734;2023-08-17T07:37:40;3.00;;;2.13;;
17488;SDS011;8861;52.644;4.734;2023-08-17T07:40:09;2.93;;;2.00;;
17488;SDS011;8861;52.644;4.734;2023-08-17T07:42:37;2.60;;;2.27;;
17488;SDS011;8861;52.644;4.734;2023-08-17T07:45:04;2.63;;;1.80;;
17488;SDS011;8861;52.644;4.734;2023-08-17T07:47:33;3.43;;;1.90;;
17488;SDS011;8861;52.644;4.734;2023-08-17T07:50:00;3.23;;;1.70;;
17488;SDS011;8861;52.644;4.734;2023-08-17T07:52:28;2.20;;;1.70;;
17488;SDS011;8861;52.644;4.734;2023-08-17T07:54:54;2.90;;;1.90;;
17488;SDS011;8861;52.644;4.734;2023-08-17T07:57:23;4.00;;;2.13;;
17488;SDS011;8861;52.644;4.734;2023-08-17T07:59:50;2.93;;;1.70;;
17488;SDS011;8861;52.644;4.734;2023-08-17T08:02:18;2.47;;;1.90;;
17488;SDS011;8861;52.644;4.734;2023-08-17T08:04:45;2.80;;;1.50;;
17488;SDS011;8861;52.644;4.734;2023-08-17T08:07:12;2.40;;;1.50;;
17488;SDS011;8861;52.644;4.734;2023-08-17T08:09:39;2.27;;;1.67;;
17488;SDS011;8861;52.644;4.734;2023-08-17T08:12:06;4.07;;;1.87;;
17488;SDS011;8861;52.644;4.734;2023-08-17T08:14:35;2.27;;;1.70;;
17488;SDS011;8861;52.644;4.734;2023-08-17T08:17:02;2.23;;;1.60;;
17488;SDS011;8861;52.644;4.734;2023-08-17T08:19:29;2.70;;;1.50;;
17488;SDS011;8861;52.644;4.734;2023-08-17T08:21:57;3.23;;;1.60;;
17488;SDS011;8861;52.644;4.734;2023-08-17T08:24:24;3.53;;;1.70;;
17488;SDS011;8861;52.644;4.734;2023-08-17T08:26:56;2.53;;;1.70;;
17488;SDS011;8861;52.644;4.734;2023-08-17T08:29:23;3.60;;;1.90;;
17488;SDS011;8861;52.644;4.734;2023-08-17T08:31:51;3.30;;;1.70;;
17488;SDS011;8861;52.644;4.734;2023-08-17T08:34:18;3.87;;;1.90;;
17488;SDS011;8861;52.644;4.734;2023-08-17T08:36:45;2.70;;;1.70;;
17488;SDS011;8861;52.644;4.734;2023-08-17T08:39:13;3.40;;;1.80;;
17488;SDS011;8861;52.644;4.734;2023-08-17T08:41:40;4.60;;;1.80;;
17488;SDS011;8861;52.644;4.734;2023-08-17T08:44:08;3.53;;;1.83;;
17488;SDS011;8861;52.644;4.734;2023-08-17T08:46:35;2.47;;;1.50;;
17488;SDS011;8861;52.644;4.734;2023-08-17T08:49:08;3.33;;;1.73;;
17488;SDS011;8861;52.644;4.734;2023-08-17T08:51:37;2.10;;;1.70;;
17488;SDS011;8861;52.644;4.734;2023-08-17T08:54:08;3.43;;;1.83;;
17488;SDS011;8861;52.644;4.734;2023-08-17T08:56:40;2.17;;;1.70;;
17488;SDS011;8861;52.644;4.734;2023-08-17T08:59:11;3.47;;;1.80;;
17488;SDS011;8861;52.644;4.734;2023-08-17T09:01:38;3.13;;;2.00;;
17488;SDS011;8861;52.644;4.734;2023-08-17T09:04:07;3.70;;;1.80;;
17488;SDS011;8861;52.644;4.734;2023-08-17T09:06:34;3.33;;;2.07;;
17488;SDS011;8861;52.644;4.734;2023-08-17T09:09:02;3.07;;;1.60;;
17488;SDS011;8861;52.644;4.734;2023-08-17T09:11:30;3.13;;;2.07;;
17488;SDS011;8861;52.644;4.734;2023-08-17T09:13:57;3.17;;;2.10;;
17488;SDS011;8861;52.644;4.734;2023-08-17T09:16:24;3.10;;;2.13;;
17488;SDS011;8861;52.644;4.734;2023-08-17T09:18:52;3.33;;;2.10;;
17488;SDS011;8861;52.644;4.734;2023-08-17T09:21:21;2.83;;;1.90;;
17488;SDS011;8861;52.644;4.734;2023-08-17T09:23:51;2.10;;;1.80;;
17488;SDS011;8861;52.644;4.734;2023-08-17T09:26:19;2.83;;;2.00;;
17488;SDS011;8861;52.644;4.734;2023-08-17T09:28:48;3.77;;;2.03;;
17488;SDS011;8861;52.644;4.734;2023-08-17T09:31:15;2.80;;;1.80;;
17488;SDS011;8861;52.644;4.734;2023-08-17T09:33:48;2.20;;;1.67;;
17488;SDS011;8861;52.644;4.734;2023-08-17T09:36:19;3.03;;;1.83;;
17488;SDS011;8861;52.644;4.734;2023-08-17T09:38:48;2.50;;;1.83;;
17488;SDS011;8861;52.644;4.734;2023-08-17T09:41:17;2.17;;;1.87;;
17488;SDS011;8861;52.644;4.734;2023-08-17T09:43:44;2.30;;;2.10;;
17488;SDS011;8861;52.644;4.734;2023-08-17T09:46:11;3.43;;;2.10;;
17488;SDS011;8861;52.644;4.734;2023-08-17T09:48:38;3.60;;;2.10;;
17488;SDS011;8861;52.644;4.734;2023-08-17T09:51:05;3.47;;;1.87;;
17488;SDS011;8861;52.644;4.734;2023-08-17T09:53:35;4.03;;;2.20;;
17488;SDS011;8861;52.644;4.734;2023-08-17T09:56:04;4.17;;;2.00;;
17488;SDS011;8861;52.644;4.734;2023-08-17T09:58:35;4.20;;;2.13;;
17488;SDS011;8861;52.644;4.734;2023-08-17T10:01:03;3.03;;;2.00;;
17488;SDS011;8861;52.644;4.734;2023-08-17T10:03:32;4.60;;;2.13;;
17488;SDS011;8861;52.644;4.734;2023-08-17T10:06:04;3.43;;;2.17;;
17488;SDS011;8861;52.644;4.734;2023-08-17T10:08:33;3.47;;;2.30;;
17488;SDS011;8861;52.644;4.734;2023-08-17T10:11:08;3.87;;;2.10;;
17488;SDS011;8861;52.644;4.734;2023-08-17T10:13:37;2.57;;;1.80;;
17488;SDS011;8861;52.644;4.734;2023-08-17T10:16:11;2.10;;;1.50;;
17488;SDS011;8861;52.644;4.734;2023-08-17T10:18:45;2.80;;;1.70;;
17488;SDS011;8861;52.644;4.734;2023-08-17T10:21:21;2.70;;;1.80;;
17488;SDS011;8861;52.644;4.734;2023-08-17T10:23:53;3.40;;;1.70;;
17488;SDS011;8861;52.644;4.734;2023-08-17T10:26:22;4.60;;;2.10;;
17488;SDS011;8861;52.644;4.734;2023-08-17T10:28:50;2.57;;;1.70;;
17488;SDS011;8861;52.644;4.734;2023-08-17T10:31:19;3.10;;;1.80;;
17488;SDS011;8861;52.644;4.734;2023-08-17T10:33:47;2.30;;;1.53;;
17488;SDS011;8861;52.644;4.734;2023-08-17T10:36:14;4.43;;;1.97;;
17488;SDS011;8861;52.644;4.734;2023-08-17T10:38:42;3.37;;;2.17;;
17488;SDS011;8861;52.644;4.734;2023-08-17T10:41:11;3.47;;;1.63;;
17488;SDS011;8861;52.644;4.734;2023-08-17T10:43:54;2.40;;;1.53;;
17488;SDS011;8861;52.644;4.734;2023-08-17T10:46:31;1.90;;;1.50;;
17488;SDS011;8861;52.644;4.734;2023-08-17T10:49:06;3.13;;;1.73;;
17488;SDS011;8861;52.644;4.734;2023-08-17T10:51:59;2.23;;;1.40;;
17488;SDS011;8861;52.644;4.734;2023-08-17T10:54:35;1.80;;;1.40;;
17488;SDS011;8861;52.644;4.734;2023-08-17T11:02:40;2.93;;;1.70;;
17488;SDS011;8861;52.644;4.734;2023-08-17T11:05:09;3.23;;;1.67;;
17488;SDS011;8861;52.644;4.734;2023-08-17T11:07:41;4.13;;;1.50;;
17488;SDS011;8861;52.644;4.734;2023-08-17T11:10:12;2.47;;;1.40;;
17488;SDS011;8861;52.644;4.734;2023-08-17T11:12:54;2.43;;;1.40;;
17488;SDS011;8861;52.644;4.734;2023-08-17T11:15:24;3.60;;;1.40;;
17488;SDS011;8861;52.644;4.734;2023-08-17T11:17:51;2.83;;;1.70;;
17488;SDS011;8861;52.644;4.734;2023-08-17T11:20:18;2.63;;;1.60;;
17488;SDS011;8861;52.644;4.734;2023-08-17T11:22:45;4.20;;;1.67;;
17488;SDS011;8861;52.644;4.734;2023-08-17T11:25:13;2.33;;;1.60;;
17488;SDS011;8861;52.644;4.734;2023-08-17T11:27:41;3.63;;;1.50;;
17488;SDS011;8861;52.644;4.734;2023-08-17T11:30:10;3.37;;;1.70;;
17488;SDS011;8861;52.644;4.734;2023-08-17T11:32:38;1.83;;;1.53;;
17488;SDS011;8861;52.644;4.734;2023-08-17T11:35:05;2.33;;;1.67;;
17488;SDS011;8861;52.644;4.734;2023-08-17T11:37:33;3.13;;;1.70;;
17488;SDS011;8861;52.644;4.734;2023-08-17T11:40:00;2.67;;;1.70;;
17488;SDS011;8861;52.644;4.734;2023-08-17T11:42:27;2.63;;;1.60;;
17488;SDS011;8861;52.644;4.734;2023-08-17T11:44:54;2.07;;;1.50;;
17488;SDS011;8861;52.644;4.734;2023-08-17T11:47:22;3.03;;;1.80;;
17488;SDS011;8861;52.644;4.734;2023-08-17T11:49:50;2.50;;;1.60;;
17488;SDS011;8861;52.644;4.734;2023-08-17T11:52:17;4.30;;;1.90;;
17488;SDS011;8861;52.644;4.734;2023-08-17T11:54:44;3.07;;;1.70;;
17488;SDS011;8861;52.644;4.734;2023-08-17T11:57:11;3.50;;;1.63;;
17488;SDS011;8861;52.644;4.734;2023-08-17T11:59:37;3.17;;;1.60;;
17488;SDS011;8861;52.644;4.734;2023-08-17T12:02:05;2.67;;;1.70;;
17488;SDS011;8861;52.644;4.734;2023-08-17T12:04:34;2.53;;;1.60;;
17488;SDS011;8861;52.644;4.734;2023-08-17T12:07:01;3.43;;;1.60;;
17488;SDS011;8861;52.644;4.734;2023-08-17T12:09:28;4.13;;;1.53;;
17488;SDS011;8861;52.644;4.734;2023-08-17T12:11:59;1.37;;;1.17;;
17488;SDS011;8861;52.644;4.734;2023-08-17T12:14:26;3.70;;;1.17;;
17488;SDS011;8861;52.644;4.734;2023-08-17T12:16:54;1.83;;;1.10;;
17488;SDS011;8861;52.644;4.734;2023-08-17T12:19:22;2.53;;;1.27;;
17488;SDS011;8861;52.644;4.734;2023-08-17T12:21:52;3.43;;;1.20;;
17488;SDS011;8861;52.644;4.734;2023-08-17T12:24:19;2.20;;;1.30;;
17488;SDS011;8861;52.644;4.734;2023-08-17T12:26:50;2.40;;;1.40;;
17488;SDS011;8861;52.644;4.734;2023-08-17T12:29:17;2.77;;;1.23;;
17488;SDS011;8861;52.644;4.734;2023-08-17T12:31:44;2.40;;;1.23;;
17488;SDS011;8861;52.644;4.734;2023-08-17T12:34:11;1.67;;;1.00;;
17488;SDS011;8861;52.644;4.734;2023-08-17T12:36:38;1.73;;;1.20;;
17488;SDS011;8861;52.644;4.734;2023-08-17T12:39:06;1.33;;;1.10;;
17488;SDS011;8861;52.644;4.734;2023-08-17T12:41:33;2.30;;;1.30;;
17488;SDS011;8861;52.644;4.734;2023-08-17T12:44:00;2.47;;;1.40;;
17488;SDS011;8861;52.644;4.734;2023-08-17T12:46:27;2.43;;;1.37;;
17488;SDS011;8861;52.644;4.734;2023-08-17T12:48:57;1.97;;;1.37;;
17488;SDS011;8861;52.644;4.734;2023-08-17T12:51:25;2.50;;;1.50;;
17488;SDS011;8861;52.644;4.734;2023-08-17T12:53:52;3.00;;;1.50;;
17488;SDS011;8861;52.644;4.734;2023-08-17T12:56:20;1.97;;;1.60;;
17488;SDS011;8861;52.644;4.734;2023-08-17T12:58:47;3.37;;;1.70;;
17488;SDS011;8861;52.644;4.734;2023-08-17T13:01:14;3.07;;;1.80;;
17488;SDS011;8861;52.644;4.734;2023-08-17T13:03:41;2.77;;;1.80;;
17488;SDS011;8861;52.644;4.734;2023-08-17T13:06:08;3.77;;;1.70;;
17488;SDS011;8861;52.644;4.734;2023-08-17T13:08:35;2.40;;;1.63;;
17488;SDS011;8861;52.644;4.734;2023-08-17T13:11:02;2.53;;;1.70;;
17488;SDS011;8861;52.644;4.734;2023-08-17T13:13:30;4.20;;;2.10;;
17488;SDS011;8861;52.644;4.734;2023-08-17T13:15:57;3.73;;;2.10;;
17488;SDS011;8861;52.644;4.734;2023-08-17T13:18:24;2.40;;;1.90;;
17488;SDS011;8861;52.644;4.734;2023-08-17T13:20:51;4.53;;;2.07;;
17488;SDS011;8861;52.644;4.734;2023-08-17T13:23:18;3.80;;;2.10;;
17488;SDS011;8861;52.644;4.734;2023-08-17T13:25:46;3.63;;;1.80;;
17488;SDS011;8861;52.644;4.734;2023-08-17T13:28:13;4.77;;;2.00;;
17488;SDS011;8861;52.644;4.734;2023-08-17T13:30:41;3.83;;;1.87;;
17488;SDS011;8861;52.644;4.734;2023-08-17T13:33:08;3.43;;;2.00;;
17488;SDS011;8861;52.644;4.734;2023-08-17T13:35:36;3.83;;;2.10;;
17488;SDS011;8861;52.644;4.734;2023-08-17T13:38:03;3.00;;;1.60;;
17488;SDS011;8861;52.644;4.734;2023-08-17T13:40:30;3.07;;;1.90;;
17488;SDS011;8861;52.644;4.734;2023-08-17T13:42:58;3.00;;;1.63;;
17488;SDS011;8861;52.644;4.734;2023-08-17T13:45:26;2.93;;;1.60;;
17488;SDS011;8861;52.644;4.734;2023-08-17T13:47:54;3.17;;;2.00;;
17488;SDS011;8861;52.644;4.734;2023-08-17T13:50:21;3.07;;;1.50;;
17488;SDS011;8861;52.644;4.734;2023-08-17T13:52:48;3.37;;;1.90;;
17488;SDS011;8861;52.644;4.734;2023-08-17T13:55:15;2.83;;;1.80;;
17488;SDS011;8861;52.644;4.734;2023-08-17T13:57:43;3.30;;;1.70;;
17488;SDS011;8861;52.644;4.734;2023-08-17T14:00:10;3.43;;;1.90;;
17488;SDS011;8861;52.644;4.734;2023-08-17T14:02:38;4.63;;;1.90;;
17488;SDS011;8861;52.644;4.734;2023-08-17T14:05:07;4.23;;;1.80;;
17488;SDS011;8861;52.644;4.734;2023-08-17T14:07:34;3.13;;;1.80;;
17488;SDS011;8861;52.644;4.734;2023-08-17T14:10:01;3.80;;;2.10;;
17488;SDS011;8861;52.644;4.734;2023-08-17T14:12:28;5.13;;;1.90;;
17488;SDS011;8861;52.644;4.734;2023-08-17T14:14:55;2.90;;;2.10;;
17488;SDS011;8861;52.644;4.734;2023-08-17T14:17:22;3.77;;;1.80;;
17488;SDS011;8861;52.644;4.734;2023-08-17T14:19:49;3.70;;;2.10;;
17488;SDS011;8861;52.644;4.734;2023-08-17T14:22:18;5.23;;;2.20;;
17488;SDS011;8861;52.644;4.734;2023-08-17T14:24:45;3.77;;;2.00;;
17488;SDS011;8861;52.644;4.734;2023-08-17T14:27:12;2.73;;;2.10;;
17488;SDS011;8861;52.644;4.734;2023-08-17T14:29:39;2.93;;;2.03;;
17488;SDS011;8861;52.644;4.734;2023-08-17T14:32:06;2.43;;;1.97;;
17488;SDS011;8861;52.644;4.734;2023-08-17T14:34:33;5.47;;;2.60;;
17488;SDS011;8861;52.644;4.734;2023-08-17T14:37:00;4.13;;;2.27;;
17488;SDS011;8861;52.644;4.734;2023-08-17T14:39:29;5.27;;;2.30;;
17488;SDS011;8861;52.644;4.734;2023-08-17T14:41:56;5.53;;;3.13;;
17488;SDS011;8861;52.644;4.734;2023-08-17T14:44:23;4.57;;;2.90;;
17488;SDS011;8861;52.644;4.734;2023-08-17T14:46:50;5.93;;;2.70;;
17488;SDS011;8861;52.644;4.734;2023-08-17T14:49:17;4.47;;;2.87;;
17488;SDS011;8861;52.644;4.734;2023-08-17T14:51:44;5.87;;;3.20;;
17488;SDS011;8861;52.644;4.734;2023-08-17T14:54:11;8.20;;;3.80;;
17488;SDS011;8861;52.644;4.734;2023-08-17T14:56:40;5.80;;;3.27;;
17488;SDS011;8861;52.644;4.734;2023-08-17T14:59:07;7.13;;;3.80;;
17488;SDS011;8861;52.644;4.734;2023-08-17T15:01:34;5.67;;;3.40;;
17488;SDS011;8861;52.644;4.734;2023-08-17T15:04:01;5.40;;;2.57;;
17488;SDS011;8861;52.644;4.734;2023-08-17T15:06:28;4.63;;;3.00;;
17488;SDS011;8861;52.644;4.734;2023-08-17T15:08:55;4.53;;;2.80;;